Ignatyevo Airport
UHBB : now visible

Airfield :











YOU CAN JOIN US ON...

 
LOGIN :

Register | Disclaimer

   EN    FR    IT 

 









Legend :    VFR   Marginal VFR   IFR   Intensive IFR   Very Intensive IFR
Visi :
Ceiling :
>= 8 km
>= 3000ft
5 to 8 km
1000 to 3000 ft
1500m to 5 km
500 to 1000 ft
800 to 1500m
200 to 500 ft
< 800m
< 200 ft
Symbols :   Thunderstorms  Fog  Heavy snow  Heavy precipitations  Wind > 20 kt






- Airport Elevation : 638 ft
- IATA code : BQS


UHBB - Ignatyevo

CURRENT METAR :
  • 100000Z 02002MPS 9999 FEW033 05/M09 Q1025 R36/090060 NOSIG RMK QFE751/1001

EXPIRED METARs :
  • 092330Z 35002MPS 9999 FEW033 04/M10 Q1025 R36/090060 NOSIG RMK QFE751/1001
  • 092300Z 35002MPS 9999 FEW033 02/M10 Q1025 R36/090060 NOSIG RMK QFE751/1001
  • 092230Z 35002MPS 9999 FEW033 01/M09 Q1025 R36/090060 NOSIG RMK QFE751/1001
  • 092200Z 00000MPS 9999 FEW033 M02/M10 Q1025 R36/090060 NOSIG RMK QFE751/1001
  • 092130Z 00000MPS 9999 FEW033 M03/M10 Q1025 R36/090060 NOSIG RMK QFE751/1001

TAF TAF UHBB
Valid from the 10 at 00:00 until the 11 at 00:00 UTC


092235Z 1000/1024 35005G10MPS CAVOK
BECMG 1010/1012 01003G08MPS



MET'MAP, your aeronautical weather chart ! - Copyright ORBIFLY December 2007 - Disclaimer

ORBIFLY MET'MAP TEAM :

Programming & Development : Alexandra Zaïnal
Concept & original design : Baudouin d'Aumeries
Assistance for programming : Marc-Olivier Méhu
Technical & hardware support : Manuel Goepfert

Contact : metmap@orbifly.com




SOURCES & CREDITS :

   NOAA       Earth
Advisory